sensor_id;sensor_type;location;lat;lon;timestamp;temperature;humidity
75164;HTU21D;63746;45.402;37.922;2022-12-18T00:00:43;10.22;74.98
75164;HTU21D;63746;45.402;37.922;2022-12-18T00:03:10;10.30;75.29
75164;HTU21D;63746;45.402;37.922;2022-12-18T00:05:36;10.39;75.21
75164;HTU21D;63746;45.402;37.922;2022-12-18T00:08:02;10.46;75.01
75164;HTU21D;63746;45.402;37.922;2022-12-18T00:10:28;10.50;74.93
75164;HTU21D;63746;45.402;37.922;2022-12-18T00:12:54;10.54;74.83
75164;HTU21D;63746;45.402;37.922;2022-12-18T00:15:20;10.58;74.76
75164;HTU21D;63746;45.402;37.922;2022-12-18T00:17:46;10.62;74.67
75164;HTU21D;63746;45.402;37.922;2022-12-18T00:20:12;10.64;74.57
75164;HTU21D;63746;45.402;37.922;2022-12-18T00:22:38;10.63;74.47
75164;HTU21D;63746;45.402;37.922;2022-12-18T00:25:04;10.64;74.39
75164;HTU21D;63746;45.402;37.922;2022-12-18T00:27:30;10.63;74.38
75164;HTU21D;63746;45.402;37.922;2022-12-18T00:29:56;10.64;74.41
75164;HTU21D;63746;45.402;37.922;2022-12-18T00:32:22;10.66;74.44
75164;HTU21D;63746;45.402;37.922;2022-12-18T00:34:47;10.67;74.43
75164;HTU21D;63746;45.402;37.922;2022-12-18T00:37:14;10.67;74.38
75164;HTU21D;63746;45.402;37.922;2022-12-18T00:39:40;10.66;74.31
75164;HTU21D;63746;45.402;37.922;2022-12-18T00:42:08;10.65;74.29
75164;HTU21D;63746;45.402;37.922;2022-12-18T00:44:54;10.62;74.25
75164;HTU21D;63746;45.402;37.922;2022-12-18T00:47:20;10.60;74.28
75164;HTU21D;63746;45.402;37.922;2022-12-18T00:49:46;10.58;74.28
75164;HTU21D;63746;45.402;37.922;2022-12-18T00:52:11;10.57;74.30
75164;HTU21D;63746;45.402;37.922;2022-12-18T00:54:37;10.56;74.31
75164;HTU21D;63746;45.402;37.922;2022-12-18T00:57:03;10.55;74.35
75164;HTU21D;63746;45.402;37.922;2022-12-18T00:59:29;10.55;74.44
75164;HTU21D;63746;45.402;37.922;2022-12-18T01:01:56;10.58;74.54
75164;HTU21D;63746;45.402;37.922;2022-12-18T01:04:21;10.62;74.60
75164;HTU21D;63746;45.402;37.922;2022-12-18T01:06:48;10.64;74.62
75164;HTU21D;63746;45.402;37.922;2022-12-18T01:09:13;10.67;74.66
75164;HTU21D;63746;45.402;37.922;2022-12-18T01:11:40;10.71;74.66
75164;HTU21D;63746;45.402;37.922;2022-12-18T01:14:06;10.75;74.69
75164;HTU21D;63746;45.402;37.922;2022-12-18T01:16:32;10.80;74.61
75164;HTU21D;63746;45.402;37.922;2022-12-18T01:18:58;10.83;74.60
75164;HTU21D;63746;45.402;37.922;2022-12-18T01:21:26;10.86;74.56
75164;HTU21D;63746;45.402;37.922;2022-12-18T01:23:54;10.88;74.47
75164;HTU21D;63746;45.402;37.922;2022-12-18T01:26:23;10.88;74.42
75164;HTU21D;63746;45.402;37.922;2022-12-18T01:28:50;10.88;74.38
75164;HTU21D;63746;45.402;37.922;2022-12-18T01:31:25;10.89;74.28
75164;HTU21D;63746;45.402;37.922;2022-12-18T01:33:51;10.90;74.25
75164;HTU21D;63746;45.402;37.922;2022-12-18T01:38:49;10.87;74.14
75164;HTU21D;63746;45.402;37.922;2022-12-18T01:41:17;10.86;74.11
75164;HTU21D;63746;45.402;37.922;2022-12-18T01:46:11;10.80;74.01
75164;HTU21D;63746;45.402;37.922;2022-12-18T01:48:39;10.75;74.01
75164;HTU21D;63746;45.402;37.922;2022-12-18T01:51:06;10.73;74.05
75164;HTU21D;63746;45.402;37.922;2022-12-18T01:53:33;10.70;74.12
75164;HTU21D;63746;45.402;37.922;2022-12-18T01:55:59;10.69;74.28
75164;HTU21D;63746;45.402;37.922;2022-12-18T01:59:01;10.71;74.47
75164;HTU21D;63746;45.402;37.922;2022-12-18T02:01:30;10.73;74.50
75164;HTU21D;63746;45.402;37.922;2022-12-18T02:07:27;10.82;74.80
75164;HTU21D;63746;45.402;37.922;2022-12-18T02:10:14;10.90;74.92
75164;HTU21D;63746;45.402;37.922;2022-12-18T02:15:39;10.99;74.70
75164;HTU21D;63746;45.402;37.922;2022-12-18T02:18:20;11.02;74.70
75164;HTU21D;63746;45.402;37.922;2022-12-18T02:21:00;11.08;74.69
75164;HTU21D;63746;45.402;37.922;2022-12-18T02:23:38;11.11;74.57
75164;HTU21D;63746;45.402;37.922;2022-12-18T02:26:20;11.12;74.53
75164;HTU21D;63746;45.402;37.922;2022-12-18T02:28:59;11.13;74.45
75164;HTU21D;63746;45.402;37.922;2022-12-18T02:31:31;11.15;74.39
75164;HTU21D;63746;45.402;37.922;2022-12-18T02:34:03;11.14;74.35
75164;HTU21D;63746;45.402;37.922;2022-12-18T02:36:38;11.15;74.27
75164;HTU21D;63746;45.402;37.922;2022-12-18T02:39:07;11.12;74.16
75164;HTU21D;63746;45.402;37.922;2022-12-18T02:41:36;11.08;74.09
75164;HTU21D;63746;45.402;37.922;2022-12-18T02:44:09;11.04;74.13
75164;HTU21D;63746;45.402;37.922;2022-12-18T02:46:49;11.02;74.18
75164;HTU21D;63746;45.402;37.922;2022-12-18T03:00:21;10.98;74.35
75164;HTU21D;63746;45.402;37.922;2022-12-18T03:05:17;10.97;74.39
75164;HTU21D;63746;45.402;37.922;2022-12-18T03:07:51;10.97;74.39
75164;HTU21D;63746;45.402;37.922;2022-12-18T03:10:24;10.96;74.38
75164;HTU21D;63746;45.402;37.922;2022-12-18T03:13:07;10.96;74.36
75164;HTU21D;63746;45.402;37.922;2022-12-18T03:15:42;10.96;74.38
75164;HTU21D;63746;45.402;37.922;2022-12-18T03:18:20;10.95;74.35
75164;HTU21D;63746;45.402;37.922;2022-12-18T03:20:47;10.97;74.31
75164;HTU21D;63746;45.402;37.922;2022-12-18T03:23:21;10.95;74.28
75164;HTU21D;63746;45.402;37.922;2022-12-18T03:25:52;10.94;74.28
75164;HTU21D;63746;45.402;37.922;2022-12-18T03:28:22;10.93;74.25
75164;HTU21D;63746;45.402;37.922;2022-12-18T03:30:57;10.90;74.23
75164;HTU21D;63746;45.402;37.922;2022-12-18T03:33:37;10.88;74.15
75164;HTU21D;63746;45.402;37.922;2022-12-18T03:36:03;10.82;74.15
75164;HTU21D;63746;45.402;37.922;2022-12-18T03:38:29;10.79;74.10
75164;HTU21D;63746;45.402;37.922;2022-12-18T03:44:28;10.68;74.13
75164;HTU21D;63746;45.402;37.922;2022-12-18T03:47:19;10.65;74.28
75164;HTU21D;63746;45.402;37.922;2022-12-18T03:49:47;10.65;74.35
75164;HTU21D;63746;45.402;37.922;2022-12-18T03:52:26;10.63;74.33
75164;HTU21D;63746;45.402;37.922;2022-12-18T03:54:54;10.59;74.35
75164;HTU21D;63746;45.402;37.922;2022-12-18T03:57:23;10.59;74.41
75164;HTU21D;63746;45.402;37.922;2022-12-18T03:59:57;10.57;74.39
75164;HTU21D;63746;45.402;37.922;2022-12-18T04:02:29;10.55;74.38
75164;HTU21D;63746;45.402;37.922;2022-12-18T04:05:01;10.54;74.43
75164;HTU21D;63746;45.402;37.922;2022-12-18T04:07:28;10.55;74.42
75164;HTU21D;63746;45.402;37.922;2022-12-18T04:09:58;10.54;74.38
75164;HTU21D;63746;45.402;37.922;2022-12-18T04:12:27;10.54;74.34
75164;HTU21D;63746;45.402;37.922;2022-12-18T04:14:54;10.52;74.28
75164;HTU21D;63746;45.402;37.922;2022-12-18T04:17:21;10.49;74.32
75164;HTU21D;63746;45.402;37.922;2022-12-18T04:19:49;10.45;74.37
75164;HTU21D;63746;45.402;37.922;2022-12-18T04:22:15;10.43;74.37
75164;HTU21D;63746;45.402;37.922;2022-12-18T04:24:46;10.42;74.35
75164;HTU21D;63746;45.402;37.922;2022-12-18T04:27:23;10.39;74.31
75164;HTU21D;63746;45.402;37.922;2022-12-18T04:29:50;10.34;74.28
75164;HTU21D;63746;45.402;37.922;2022-12-18T04:32:17;10.30;74.28
75164;HTU21D;63746;45.402;37.922;2022-12-18T04:34:44;10.28;74.35
75164;HTU21D;63746;45.402;37.922;2022-12-18T04:37:10;10.25;74.38
75164;HTU21D;63746;45.402;37.922;2022-12-18T04:39:37;10.22;74.38
75164;HTU21D;63746;45.402;37.922;2022-12-18T04:42:09;10.23;74.44
75164;HTU21D;63746;45.402;37.922;2022-12-18T04:44:36;10.22;74.48
75164;HTU21D;63746;45.402;37.922;2022-12-18T04:47:02;10.22;74.47
75164;HTU21D;63746;45.402;37.922;2022-12-18T04:49:28;10.20;74.44
75164;HTU21D;63746;45.402;37.922;2022-12-18T04:51:54;10.20;74.39
75164;HTU21D;63746;45.402;37.922;2022-12-18T04:54:20;10.15;74.34
75164;HTU21D;63746;45.402;37.922;2022-12-18T04:56:46;10.12;74.30
75164;HTU21D;63746;45.402;37.922;2022-12-18T04:59:13;10.09;74.28
75164;HTU21D;63746;45.402;37.922;2022-12-18T05:01:39;10.04;74.30
75164;HTU21D;63746;45.402;37.922;2022-12-18T05:04:05;10.00;74.38
75164;HTU21D;63746;45.402;37.922;2022-12-18T05:06:31;9.98;74.47
75164;HTU21D;63746;45.402;37.922;2022-12-18T05:08:56;9.99;74.58
75164;HTU21D;63746;45.402;37.922;2022-12-18T05:11:22;9.99;74.64
75164;HTU21D;63746;45.402;37.922;2022-12-18T05:13:49;10.03;74.69
75164;HTU21D;63746;45.402;37.922;2022-12-18T05:16:15;10.05;74.70
75164;HTU21D;63746;45.402;37.922;2022-12-18T05:18:42;10.07;74.70
75164;HTU21D;63746;45.402;37.922;2022-12-18T05:21:08;10.10;74.76
75164;HTU21D;63746;45.402;37.922;2022-12-18T05:23:34;10.15;74.73
75164;HTU21D;63746;45.402;37.922;2022-12-18T05:26:02;10.16;74.69
75164;HTU21D;63746;45.402;37.922;2022-12-18T05:28:30;10.19;74.64
75164;HTU21D;63746;45.402;37.922;2022-12-18T05:30:58;10.22;74.67
75164;HTU21D;63746;45.402;37.922;2022-12-18T05:33:26;10.24;74.66
75164;HTU21D;63746;45.402;37.922;2022-12-18T05:35:54;10.26;74.60
75164;HTU21D;63746;45.402;37.922;2022-12-18T05:38:22;10.26;74.44
75164;HTU21D;63746;45.402;37.922;2022-12-18T05:40:49;10.26;74.41
75164;HTU21D;63746;45.402;37.922;2022-12-18T05:43:15;10.26;74.41
75164;HTU21D;63746;45.402;37.922;2022-12-18T05:45:42;10.27;74.41
75164;HTU21D;63746;45.402;37.922;2022-12-18T05:48:08;10.28;74.41
75164;HTU21D;63746;45.402;37.922;2022-12-18T05:50:39;10.29;74.44
75164;HTU21D;63746;45.402;37.922;2022-12-18T05:53:06;10.31;74.47
75164;HTU21D;63746;45.402;37.922;2022-12-18T05:55:36;10.33;74.49
75164;HTU21D;63746;45.402;37.922;2022-12-18T05:58:04;10.35;74.51
75164;HTU21D;63746;45.402;37.922;2022-12-18T06:00:31;10.37;74.56
75164;HTU21D;63746;45.402;37.922;2022-12-18T06:02:58;10.41;74.60
75164;HTU21D;63746;45.402;37.922;2022-12-18T06:05:25;10.43;74.60
75164;HTU21D;63746;45.402;37.922;2022-12-18T06:07:51;10.48;74.60
75164;HTU21D;63746;45.402;37.922;2022-12-18T06:10:17;10.51;74.60
75164;HTU21D;63746;45.402;37.922;2022-12-18T06:12:43;10.53;74.61
75164;HTU21D;63746;45.402;37.922;2022-12-18T06:15:09;10.56;74.58
75164;HTU21D;63746;45.402;37.922;2022-12-18T06:17:36;10.59;74.62
75164;HTU21D;63746;45.402;37.922;2022-12-18T06:20:03;10.64;74.67
75164;HTU21D;63746;45.402;37.922;2022-12-18T06:22:32;10.68;74.68
75164;HTU21D;63746;45.402;37.922;2022-12-18T06:24:59;10.71;74.65
75164;HTU21D;63746;45.402;37.922;2022-12-18T06:27:25;10.74;74.71
75164;HTU21D;63746;45.402;37.922;2022-12-18T06:29:51;10.80;74.73
75164;HTU21D;63746;45.402;37.922;2022-12-18T06:32:17;10.84;74.71
75164;HTU21D;63746;45.402;37.922;2022-12-18T06:34:43;10.88;74.72
75164;HTU21D;63746;45.402;37.922;2022-12-18T06:37:08;10.93;74.76
75164;HTU21D;63746;45.402;37.922;2022-12-18T06:39:34;10.96;74.73
75164;HTU21D;63746;45.402;37.922;2022-12-18T06:42:00;11.01;74.67
75164;HTU21D;63746;45.402;37.922;2022-12-18T06:44:26;11.03;74.64
75164;HTU21D;63746;45.402;37.922;2022-12-18T06:46:52;11.05;74.66
75164;HTU21D;63746;45.402;37.922;2022-12-18T06:49:18;11.09;74.65
75164;HTU21D;63746;45.402;37.922;2022-12-18T06:51:44;11.13;74.65
75164;HTU21D;63746;45.402;37.922;2022-12-18T06:54:10;11.16;74.67
75164;HTU21D;63746;45.402;37.922;2022-12-18T06:56:36;11.20;74.68
75164;HTU21D;63746;45.402;37.922;2022-12-18T06:59:02;11.25;74.69
75164;HTU21D;63746;45.402;37.922;2022-12-18T07:01:28;11.29;74.70
75164;HTU21D;63746;45.402;37.922;2022-12-18T07:03:55;11.33;74.72
75164;HTU21D;63746;45.402;37.922;2022-12-18T07:06:23;11.37;74.72
75164;HTU21D;63746;45.402;37.922;2022-12-18T07:08:50;11.42;74.71
75164;HTU21D;63746;45.402;37.922;2022-12-18T07:11:17;11.46;74.73
75164;HTU21D;63746;45.402;37.922;2022-12-18T07:13:44;11.52;74.76
75164;HTU21D;63746;45.402;37.922;2022-12-18T07:16:18;11.58;74.80
75164;HTU21D;63746;45.402;37.922;2022-12-18T07:18:45;11.62;74.73
75164;HTU21D;63746;45.402;37.922;2022-12-18T07:21:14;11.67;74.73
75164;HTU21D;63746;45.402;37.922;2022-12-18T07:23:40;11.73;74.73
75164;HTU21D;63746;45.402;37.922;2022-12-18T07:26:08;11.77;74.74
75164;HTU21D;63746;45.402;37.922;2022-12-18T07:28:38;11.83;74.71
75164;HTU21D;63746;45.402;37.922;2022-12-18T07:31:06;11.88;74.74
75164;HTU21D;63746;45.402;37.922;2022-12-18T07:33:34;11.96;74.73
75164;HTU21D;63746;45.402;37.922;2022-12-18T07:36:04;12.01;74.74
75164;HTU21D;63746;45.402;37.922;2022-12-18T07:38:32;12.06;74.70
75164;HTU21D;63746;45.402;37.922;2022-12-18T07:41:02;12.12;74.69
75164;HTU21D;63746;45.402;37.922;2022-12-18T07:43:28;12.18;74.70
75164;HTU21D;63746;45.402;37.922;2022-12-18T07:45:54;12.25;74.67
75164;HTU21D;63746;45.402;37.922;2022-12-18T07:48:20;12.29;74.64
75164;HTU21D;63746;45.402;37.922;2022-12-18T07:50:46;12.33;74.57
75164;HTU21D;63746;45.402;37.922;2022-12-18T07:53:12;12.37;74.51
75164;HTU21D;63746;45.402;37.922;2022-12-18T07:55:41;12.40;74.49
75164;HTU21D;63746;45.402;37.922;2022-12-18T07:58:07;12.45;74.49
75164;HTU21D;63746;45.402;37.922;2022-12-18T08:00:34;12.50;74.54
75164;HTU21D;63746;45.402;37.922;2022-12-18T08:03:00;12.55;74.58
75164;HTU21D;63746;45.402;37.922;2022-12-18T08:05:26;12.59;74.57
75164;HTU21D;63746;45.402;37.922;2022-12-18T08:07:54;12.66;74.57
75164;HTU21D;63746;45.402;37.922;2022-12-18T08:10:20;12.71;74.57
75164;HTU21D;63746;45.402;37.922;2022-12-18T08:12:50;12.76;74.62
75164;HTU21D;63746;45.402;37.922;2022-12-18T08:15:16;12.84;74.60
75164;HTU21D;63746;45.402;37.922;2022-12-18T08:17:42;12.91;74.60
75164;HTU21D;63746;45.402;37.922;2022-12-18T08:20:08;12.96;74.59
75164;HTU21D;63746;45.402;37.922;2022-12-18T08:22:35;13.02;74.54
75164;HTU21D;63746;45.402;37.922;2022-12-18T08:25:01;13.06;74.52
75164;HTU21D;63746;45.402;37.922;2022-12-18T08:27:27;13.12;74.47
75164;HTU21D;63746;45.402;37.922;2022-12-18T08:29:53;13.16;74.43
75164;HTU21D;63746;45.402;37.922;2022-12-18T08:32:19;13.19;74.38
75164;HTU21D;63746;45.402;37.922;2022-12-18T08:34:45;13.23;74.40
75164;HTU21D;63746;45.402;37.922;2022-12-18T08:37:11;13.26;74.35
75164;HTU21D;63746;45.402;37.922;2022-12-18T08:39:37;13.27;74.30
75164;HTU21D;63746;45.402;37.922;2022-12-18T08:42:03;13.30;74.25
75164;HTU21D;63746;45.402;37.922;2022-12-18T08:44:47;13.32;74.27
75164;HTU21D;63746;45.402;37.922;2022-12-18T08:47:13;13.33;74.24
75164;HTU21D;63746;45.402;37.922;2022-12-18T08:49:39;13.35;74.25
75164;HTU21D;63746;45.402;37.922;2022-12-18T08:52:06;13.35;74.26
75164;HTU21D;63746;45.402;37.922;2022-12-18T08:54:31;13.36;74.25
75164;HTU21D;63746;45.402;37.922;2022-12-18T08:56:57;13.38;74.30
75164;HTU21D;63746;45.402;37.922;2022-12-18T08:59:23;13.38;74.33
75164;HTU21D;63746;45.402;37.922;2022-12-18T09:01:49;13.40;74.33
75164;HTU21D;63746;45.402;37.922;2022-12-18T09:04:15;13.40;74.28
75164;HTU21D;63746;45.402;37.922;2022-12-18T09:06:41;13.38;74.18
75164;HTU21D;63746;45.402;37.922;2022-12-18T09:09:09;13.33;74.11
75164;HTU21D;63746;45.402;37.922;2022-12-18T09:11:35;13.26;74.09
75164;HTU21D;63746;45.402;37.922;2022-12-18T09:14:01;13.21;74.07
75164;HTU21D;63746;45.402;37.922;2022-12-18T09:16:29;13.12;74.06
75164;HTU21D;63746;45.402;37.922;2022-12-18T09:18:56;13.05;74.15
75164;HTU21D;63746;45.402;37.922;2022-12-18T09:21:26;12.99;74.24
75164;HTU21D;63746;45.402;37.922;2022-12-18T09:23:54;12.94;74.35
75164;HTU21D;63746;45.402;37.922;2022-12-18T09:26:25;12.88;74.43
75164;HTU21D;63746;45.402;37.922;2022-12-18T09:28:51;12.84;74.51
75164;HTU21D;63746;45.402;37.922;2022-12-18T09:31:19;12.81;74.54
75164;HTU21D;63746;45.402;37.922;2022-12-18T09:33:45;12.78;74.56
75164;HTU21D;63746;45.402;37.922;2022-12-18T09:36:13;12.75;74.59
75164;HTU21D;63746;45.402;37.922;2022-12-18T09:38:39;12.75;74.64
75164;HTU21D;63746;45.402;37.922;2022-12-18T09:43:59;12.73;74.74
75164;HTU21D;63746;45.402;37.922;2022-12-18T09:46:40;12.70;74.86
75164;HTU21D;63746;45.402;37.922;2022-12-18T09:49:12;12.67;74.73
75164;HTU21D;63746;45.402;37.922;2022-12-18T09:52:02;12.69;74.75
75164;HTU21D;63746;45.402;37.922;2022-12-18T09:54:38;12.65;74.83
75164;HTU21D;63746;45.402;37.922;2022-12-18T09:57:14;12.64;74.83
75164;HTU21D;63746;45.402;37.922;2022-12-18T10:01:32;12.57;74.83
75164;HTU21D;63746;45.402;37.922;2022-12-18T10:03:59;12.52;74.84
75164;HTU21D;63746;45.402;37.922;2022-12-18T10:06:44;12.48;74.83
75164;HTU21D;63746;45.402;37.922;2022-12-18T10:12:09;12.38;74.83
75164;HTU21D;63746;45.402;37.922;2022-12-18T10:15:01;12.33;74.89
75164;HTU21D;63746;45.402;37.922;2022-12-18T10:17:45;12.27;74.91
75164;HTU21D;63746;45.402;37.922;2022-12-18T10:23:32;12.21;74.94
75164;HTU21D;63746;45.402;37.922;2022-12-18T10:26:09;12.18;75.08
75164;HTU21D;63746;45.402;37.922;2022-12-18T10:28:37;12.15;75.08
75164;HTU21D;63746;45.402;37.922;2022-12-18T10:31:23;12.11;75.30
75164;HTU21D;63746;45.402;37.922;2022-12-18T10:33:50;12.08;75.05
75164;HTU21D;63746;45.402;37.922;2022-12-18T10:36:16;12.07;75.07
75164;HTU21D;63746;45.402;37.922;2022-12-18T10:38:42;12.04;75.01
75164;HTU21D;63746;45.402;37.922;2022-12-18T10:43:44;11.92;74.99
75164;HTU21D;63746;45.402;37.922;2022-12-18T10:51:05;11.76;75.47
75164;HTU21D;63746;45.402;37.922;2022-12-18T10:53:33;11.68;75.05
75164;HTU21D;63746;45.402;37.922;2022-12-18T10:56:02;11.59;75.13
75164;HTU21D;63746;45.402;37.922;2022-12-18T10:58:37;11.54;75.18
75164;HTU21D;63746;45.402;37.922;2022-12-18T11:03:59;11.34;75.17
75164;HTU21D;63746;45.402;37.922;2022-12-18T11:06:26;11.27;75.19
75164;HTU21D;63746;45.402;37.922;2022-12-18T11:09:17;11.23;75.30
75164;HTU21D;63746;45.402;37.922;2022-12-18T11:11:55;11.15;75.31
75164;HTU21D;63746;45.402;37.922;2022-12-18T11:14:24;11.05;75.22
75164;HTU21D;63746;45.402;37.922;2022-12-18T11:16:50;10.97;75.69
75164;HTU21D;63746;45.402;37.922;2022-12-18T11:19:26;10.89;75.44
75164;HTU21D;63746;45.402;37.922;2022-12-18T11:21:54;10.81;75.47
75164;HTU21D;63746;45.402;37.922;2022-12-18T11:24:52;10.71;75.59
75164;HTU21D;63746;45.402;37.922;2022-12-18T11:27:19;10.65;75.51
75164;HTU21D;63746;45.402;37.922;2022-12-18T11:29:45;10.58;75.59
75164;HTU21D;63746;45.402;37.922;2022-12-18T11:32:31;10.49;75.74
75164;HTU21D;63746;45.402;37.922;2022-12-18T11:35:12;10.41;75.70
75164;HTU21D;63746;45.402;37.922;2022-12-18T11:37:43;10.35;75.64
75164;HTU21D;63746;45.402;37.922;2022-12-18T11:40:18;10.25;75.73
75164;HTU21D;63746;45.402;37.922;2022-12-18T11:45:43;10.11;75.84
75164;HTU21D;63746;45.402;37.922;2022-12-18T11:48:18;10.06;75.91
75164;HTU21D;63746;45.402;37.922;2022-12-18T11:50:57;9.98;75.97
75164;HTU21D;63746;45.402;37.922;2022-12-18T11:53:25;9.95;76.01
75164;HTU21D;63746;45.402;37.922;2022-12-18T12:03:52;9.81;76.23
75164;HTU21D;63746;45.402;37.922;2022-12-18T12:09:07;9.76;76.02
75164;HTU21D;63746;45.402;37.922;2022-12-18T12:11:37;9.75;76.14
75164;HTU21D;63746;45.402;37.922;2022-12-18T12:17:00;9.66;76.14
75164;HTU21D;63746;45.402;37.922;2022-12-18T12:31:01;9.37;76.22
75164;HTU21D;63746;45.402;37.922;2022-12-18T16:30:48;6.54;77.16
75164;HTU21D;63746;45.402;37.922;2022-12-18T16:33:14;6.56;77.13
75164;HTU21D;63746;45.402;37.922;2022-12-18T16:35:42;6.58;77.06
75164;HTU21D;63746;45.402;37.922;2022-12-18T16:38:08;6.65;77.05
75164;HTU21D;63746;45.402;37.922;2022-12-18T16:40:34;6.73;76.98
75164;HTU21D;63746;45.402;37.922;2022-12-18T16:43:20;6.76;76.76
75164;HTU21D;63746;45.402;37.922;2022-12-18T16:45:47;6.82;76.73
75164;HTU21D;63746;45.402;37.922;2022-12-18T16:48:13;6.83;76.55
75164;HTU21D;63746;45.402;37.922;2022-12-18T16:50:39;6.85;76.43
75164;HTU21D;63746;45.402;37.922;2022-12-18T16:53:06;6.86;76.40
75164;HTU21D;63746;45.402;37.922;2022-12-18T16:55:32;6.88;76.34
75164;HTU21D;63746;45.402;37.922;2022-12-18T16:57:58;6.88;76.28
75164;HTU21D;63746;45.402;37.922;2022-12-18T17:00:24;6.88;76.23
75164;HTU21D;63746;45.402;37.922;2022-12-18T17:02:50;6.85;76.11
75164;HTU21D;63746;45.402;37.922;2022-12-18T17:05:16;6.85;76.15
75164;HTU21D;63746;45.402;37.922;2022-12-18T17:07:41;6.84;76.21
75164;HTU21D;63746;45.402;37.922;2022-12-18T17:10:08;6.85;76.28
75164;HTU21D;63746;45.402;37.922;2022-12-18T17:12:34;6.86;76.16
75164;HTU21D;63746;45.402;37.922;2022-12-18T17:15:04;6.84;76.12
75164;HTU21D;63746;45.402;37.922;2022-12-18T17:17:30;6.83;76.07
75164;HTU21D;63746;45.402;37.922;2022-12-18T17:19:56;6.82;76.07
75164;HTU21D;63746;45.402;37.922;2022-12-18T17:22:23;6.81;76.11
75164;HTU21D;63746;45.402;37.922;2022-12-18T17:24:49;6.81;76.08
75164;HTU21D;63746;45.402;37.922;2022-12-18T17:27:15;6.82;76.12
75164;HTU21D;63746;45.402;37.922;2022-12-18T17:29:41;6.82;76.10
75164;HTU21D;63746;45.402;37.922;2022-12-18T17:32:08;6.82;76.12
75164;HTU21D;63746;45.402;37.922;2022-12-18T17:34:34;6.83;76.10
75164;HTU21D;63746;45.402;37.922;2022-12-18T17:37:01;6.83;76.05
75164;HTU21D;63746;45.402;37.922;2022-12-18T17:39:27;6.83;76.05
75164;HTU21D;63746;45.402;37.922;2022-12-18T17:41:55;6.84;76.05
75164;HTU21D;63746;45.402;37.922;2022-12-18T17:44:21;6.84;76.04
75164;HTU21D;63746;45.402;37.922;2022-12-18T17:46:48;6.85;76.07
75164;HTU21D;63746;45.402;37.922;2022-12-18T17:49:14;6.88;76.08
75164;HTU21D;63746;45.402;37.922;2022-12-18T17:51:41;6.89;76.02
75164;HTU21D;63746;45.402;37.922;2022-12-18T17:54:09;6.90;75.99
75164;HTU21D;63746;45.402;37.922;2022-12-18T17:56:35;6.87;75.90
75164;HTU21D;63746;45.402;37.922;2022-12-18T17:59:02;6.85;75.84
75164;HTU21D;63746;45.402;37.922;2022-12-18T18:01:29;6.81;75.85
75164;HTU21D;63746;45.402;37.922;2022-12-18T18:03:55;6.79;75.84
75164;HTU21D;63746;45.402;37.922;2022-12-18T18:28:36;6.35;76.43
75164;HTU21D;63746;45.402;37.922;2022-12-18T18:31:06;6.33;76.28
75164;HTU21D;63746;45.402;37.922;2022-12-18T18:33:32;6.31;76.32
75164;HTU21D;63746;45.402;37.922;2022-12-18T18:36:00;6.33;76.32
75164;HTU21D;63746;45.402;37.922;2022-12-18T18:38:26;6.36;76.19
75164;HTU21D;63746;45.402;37.922;2022-12-18T18:41:04;6.37;76.21
75164;HTU21D;63746;45.402;37.922;2022-12-18T18:43:31;6.41;76.19
75164;HTU21D;63746;45.402;37.922;2022-12-18T18:46:00;6.43;76.12
75164;HTU21D;63746;45.402;37.922;2022-12-18T18:48:29;6.44;75.90
75164;HTU21D;63746;45.402;37.922;2022-12-18T18:51:00;6.44;75.92
75164;HTU21D;63746;45.402;37.922;2022-12-18T18:53:28;6.42;75.77
75164;HTU21D;63746;45.402;37.922;2022-12-18T18:55:57;6.39;75.57
75164;HTU21D;63746;45.402;37.922;2022-12-18T18:58:25;6.35;75.57
75164;HTU21D;63746;45.402;37.922;2022-12-18T19:01:01;6.30;75.54
75164;HTU21D;63746;45.402;37.922;2022-12-18T19:03:27;6.26;75.61
75164;HTU21D;63746;45.402;37.922;2022-12-18T19:05:55;6.24;75.60
75164;HTU21D;63746;45.402;37.922;2022-12-18T19:08:29;6.22;75.65
75164;HTU21D;63746;45.402;37.922;2022-12-18T19:10:58;6.19;75.76
75164;HTU21D;63746;45.402;37.922;2022-12-18T19:13:29;6.17;75.76
75164;HTU21D;63746;45.402;37.922;2022-12-18T19:16:06;6.15;75.69
75164;HTU21D;63746;45.402;37.922;2022-12-18T19:18:33;6.12;75.65
75164;HTU21D;63746;45.402;37.922;2022-12-18T19:21:01;6.10;75.70
75164;HTU21D;63746;45.402;37.922;2022-12-18T19:23:29;6.07;75.73
75164;HTU21D;63746;45.402;37.922;2022-12-18T19:25:59;6.05;75.59
75164;HTU21D;63746;45.402;37.922;2022-12-18T19:28:26;6.01;75.63
75164;HTU21D;63746;45.402;37.922;2022-12-18T19:30:57;6.00;75.73
75164;HTU21D;63746;45.402;37.922;2022-12-18T19:33:23;5.99;75.76
75164;HTU21D;63746;45.402;37.922;2022-12-18T19:35:50;6.00;75.82
75164;HTU21D;63746;45.402;37.922;2022-12-18T19:38:17;5.99;75.76
75164;HTU21D;63746;45.402;37.922;2022-12-18T19:40:43;5.98;75.74
75164;HTU21D;63746;45.402;37.922;2022-12-18T19:43:11;5.97;75.79
75164;HTU21D;63746;45.402;37.922;2022-12-18T19:45:37;5.97;75.77
75164;HTU21D;63746;45.402;37.922;2022-12-18T19:48:04;5.95;75.73
75164;HTU21D;63746;45.402;37.922;2022-12-18T19:50:30;5.94;75.67
75164;HTU21D;63746;45.402;37.922;2022-12-18T19:52:56;5.92;75.70
75164;HTU21D;63746;45.402;37.922;2022-12-18T19:55:23;5.92;75.75
75164;HTU21D;63746;45.402;37.922;2022-12-18T19:57:49;5.90;75.76
75164;HTU21D;63746;45.402;37.922;2022-12-18T20:00:15;5.91;75.85
75164;HTU21D;63746;45.402;37.922;2022-12-18T20:02:41;5.93;75.84
75164;HTU21D;63746;45.402;37.922;2022-12-18T20:05:10;5.93;75.83
75164;HTU21D;63746;45.402;37.922;2022-12-18T20:07:36;5.94;75.81
75164;HTU21D;63746;45.402;37.922;2022-12-18T20:10:04;5.95;75.77
75164;HTU21D;63746;45.402;37.922;2022-12-18T20:12:31;5.94;75.68
75164;HTU21D;63746;45.402;37.922;2022-12-18T20:14:57;5.94;75.71
75164;HTU21D;63746;45.402;37.922;2022-12-18T20:17:23;5.93;75.67
75164;HTU21D;63746;45.402;37.922;2022-12-18T20:19:49;5.91;75.57
75164;HTU21D;63746;45.402;37.922;2022-12-18T20:22:14;5.90;75.49
75164;HTU21D;63746;45.402;37.922;2022-12-18T20:24:40;5.85;75.44
75164;HTU21D;63746;45.402;37.922;2022-12-18T20:27:07;5.81;75.43
75164;HTU21D;63746;45.402;37.922;2022-12-18T20:29:33;5.76;75.40
75164;HTU21D;63746;45.402;37.922;2022-12-18T20:31:59;5.74;75.47
75164;HTU21D;63746;45.402;37.922;2022-12-18T20:34:25;5.71;75.54
75164;HTU21D;63746;45.402;37.922;2022-12-18T20:36:51;5.72;75.60
75164;HTU21D;63746;45.402;37.922;2022-12-18T20:39:17;5.72;75.60
75164;HTU21D;63746;45.402;37.922;2022-12-18T20:41:44;5.72;75.59
75164;HTU21D;63746;45.402;37.922;2022-12-18T20:44:14;5.71;75.60
75164;HTU21D;63746;45.402;37.922;2022-12-18T20:46:40;5.72;75.66
75164;HTU21D;63746;45.402;37.922;2022-12-18T20:49:07;5.72;75.67
75164;HTU21D;63746;45.402;37.922;2022-12-18T20:51:33;5.74;75.72